aviador You're here:

LFPG Decoded Metar

PARIS CHARLES DE GAULLE in FRANCE
Report Time2018-07-18 19:30:00
UTC Time2018-07-18 20:06:25
Flight Rules vfr VFR
Wind040° at 07 kt
W.Decomp.*RWY 08: 5.4 kt HW 4.4 kt LCW
RWY 09: 4.6 kt HW 5.3 kt LCW
W.Rank040° ranks 15
Current wind is above 040° avg. (6.5)
Visibility9999 m
Phenomena:N/A
Clouds:N/A
Expected CloudBase > 5,200 ft AGL from Temp-Dew spread
CeilingNone
Temp24°C (ISA +10)
Dew Point11°C (44% RH)
AAT21.8°C
QNH1017 hPa
Density Alt1,529 ft
Elevation358 ft
Report Wrong Elevation
Raw Report
LFPG 181930Z 04007KT 010V110 CAVOK 24/11 Q1017 NOSIG=

Extra information for LFPG:More info

Metar Taf Metar & Taf Last 4 Metars F.Rules Stats Wind Profile Meteogram Temp Stats Airport Information Weather charts Add Link Nearby VenuesMetar ALERT Operation Metar Decoded Social comments